Time;durP1;ratioP1;P1;durP2;ratioP2;P2;SDS_P1;SDS_P2;PMS_P1;PMS_P2;Temp;Humidity;BMP_temperature;BMP_pressure;BME280_temperature;BME280_humidity;BME280_pressure;Samples;Min_cycle;Max_cycle;Signal;HPM_P1;HPM_P2
2022/11/16 00:02:05;;;;;;;8.48;6.20;;;12.40;99.90;;;;;;5086765;28;20093;-90
2022/11/16 00:04:30;;;;;;;10.35;7.32;;;12.40;99.90;;;;;;5091115;28;20047;-90
2022/11/16 00:06:56;;;;;;;13.50;5.80;;;12.50;99.90;;;;;;5074527;28;20475;-90
2022/11/16 00:09:21;;;;;;;8.82;4.75;;;12.40;99.90;;;;;;5076101;28;20090;-90
2022/11/16 00:11:49;;;;;;;10.32;4.75;;;12.40;99.90;;;;;;5089271;28;20032;-90
2022/11/16 00:14:15;;;;;;;10.32;5.03;;;12.30;99.90;;;;;;5089727;28;20036;-90
2022/11/16 00:16:41;;;;;;;10.73;4.70;;;12.30;99.90;;;;;;5091188;28;20055;-90
2022/11/16 00:19:08;;;;;;;9.07;4.80;;;12.30;99.90;;;;;;5073914;28;20040;-90
2022/11/16 00:21:34;;;;;;;8.90;4.78;;;12.30;99.90;;;;;;5075214;28;20493;-90
2022/11/16 00:24:00;;;;;;;10.30;5.43;;;12.30;99.90;;;;;;5076116;28;20031;-90
2022/11/16 00:26:25;;;;;;;11.15;7.68;;;12.30;99.90;;;;;;5073638;28;20035;-89
2022/11/16 00:28:52;;;;;;;9.43;5.18;;;12.30;99.90;;;;;;5080202;28;20432;-90
2022/11/16 00:31:19;;;;;;;9.05;4.15;;;12.40;99.90;;;;;;5092676;28;20499;-90
2022/11/16 00:33:45;;;;;;;9.50;4.50;;;12.30;99.90;;;;;;5090312;28;20032;-90
2022/11/16 00:36:12;;;;;;;7.95;4.30;;;12.30;99.90;;;;;;5102294;28;20119;-90
2022/11/16 00:38:38;;;;;;;8.75;4.97;;;12.30;99.90;;;;;;5092582;28;20054;-91
2022/11/16 00:41:04;;;;;;;10.27;4.85;;;12.30;99.90;;;;;;5111530;28;20776;-91
2022/11/16 00:43:29;;;;;;;9.52;4.78;;;12.30;99.90;;;;;;5094127;28;20436;-91
2022/11/16 00:45:55;;;;;;;9.70;4.88;;;12.30;99.90;;;;;;5094503;28;20027;-91
2022/11/16 00:48:21;;;;;;;9.73;7.22;;;12.30;99.90;;;;;;5093949;28;20088;-91
2022/11/16 00:50:46;;;;;;;9.35;4.32;;;12.30;99.90;;;;;;5111218;28;20039;-91
2022/11/16 00:53:14;;;;;;;8.98;4.38;;;12.30;99.90;;;;;;5110865;28;20024;-91
2022/11/16 00:55:41;;;;;;;9.18;4.82;;;12.30;99.90;;;;;;5109727;28;20036;-91
2022/11/16 00:58:07;;;;;;;10.32;4.47;;;12.30;99.90;;;;;;5111567;28;20130;-91
2022/11/16 01:00:33;;;;;;;9.75;4.40;;;12.30;99.90;;;;;;5093551;28;20173;-90
2022/11/16 01:02:58;;;;;;;9.80;4.75;;;12.30;99.90;;;;;;5110927;28;20043;-90
2022/11/16 01:05:24;;;;;;;10.13;7.13;;;12.30;99.90;;;;;;5094515;28;20051;-91
2022/11/16 01:07:50;;;;;;;9.15;6.63;;;12.40;99.90;;;;;;5110105;28;20043;-91
2022/11/16 01:10:18;;;;;;;10.18;4.20;;;12.40;99.90;;;;;;5111214;28;20040;-91
2022/11/16 01:12:46;;;;;;;8.95;7.03;;;12.40;99.90;;;;;;5109901;28;20324;-91
2022/11/16 01:15:11;;;;;;;9.02;6.47;;;12.40;99.90;;;;;;5093101;28;20040;-91
2022/11/16 01:17:38;;;;;;;7.82;3.72;;;12.50;99.90;;;;;;5110952;28;20134;-91
2022/11/16 01:20:07;;;;;;;10.18;6.80;;;12.40;99.90;;;;;;5110796;28;20036;-91
2022/11/16 01:22:37;;;;;;;8.52;3.88;;;12.50;99.90;;;;;;5109873;28;20044;-90
2022/11/16 01:25:04;;;;;;;8.52;3.85;;;12.40;99.90;;;;;;5111002;28;20073;-90
2022/11/16 01:27:29;;;;;;;9.82;4.03;;;12.40;99.90;;;;;;5092568;28;20070;-91
2022/11/16 01:29:55;;;;;;;8.98;4.28;;;12.40;99.90;;;;;;5111133;28;20083;-90
2022/11/16 01:32:20;;;;;;;10.52;4.15;;;12.40;99.90;;;;;;5110066;28;20042;-90
2022/11/16 01:34:46;;;;;;;9.55;6.45;;;12.40;99.90;;;;;;5109400;28;20119;-90
2022/11/16 01:37:12;;;;;;;9.45;4.78;;;12.50;99.90;;;;;;5110192;28;20135;-90
2022/11/16 01:39:37;;;;;;;9.10;3.90;;;12.50;99.90;;;;;;5111089;28;20497;-90
2022/11/16 01:42:03;;;;;;;9.85;4.20;;;12.40;99.90;;;;;;5109573;28;20043;-92
2022/11/16 01:44:32;;;;;;;9.60;4.43;;;12.40;99.90;;;;;;5109511;28;20222;-91
2022/11/16 01:46:59;;;;;;;10.07;3.95;;;12.40;99.90;;;;;;5093026;28;20043;-91
2022/11/16 01:49:27;;;;;;;9.40;5.72;;;12.40;99.90;;;;;;5110515;28;20035;-91
2022/11/16 01:51:56;;;;;;;8.50;3.97;;;12.40;99.90;;;;;;5108752;28;20489;-90
2022/11/16 01:54:23;;;;;;;8.68;4.03;;;12.40;99.90;;;;;;5110243;28;20027;-91
2022/11/16 01:56:51;;;;;;;8.30;3.50;;;12.40;99.90;;;;;;5109477;28;20493;-90
2022/11/16 01:59:17;;;;;;;8.75;3.92;;;12.40;99.90;;;;;;5093922;28;20039;-90
2022/11/16 02:01:43;;;;;;;10.38;5.13;;;12.30;99.90;;;;;;5091108;28;20474;-90
2022/11/16 02:04:12;;;;;;;9.93;6.13;;;12.30;99.90;;;;;;5092129;28;20134;-90
2022/11/16 02:07:05;;;;;;;7.97;3.88;;;12.40;99.90;;;;;;5093622;28;20508;-91
2022/11/16 02:09:58;;;;;;;11.07;3.63;;;12.40;99.90;;;;;;5093550;28;20036;-90
2022/11/16 02:12:49;;;;;;;9.18;3.38;;;12.40;99.90;;;;;;5092351;28;20044;-90
2022/11/16 02:15:40;;;;;;;8.50;3.17;;;12.30;99.90;;;;;;5091558;28;20040;-90
2022/11/16 02:18:20;;;;;;;7.20;3.45;;;12.30;99.90;;;;;;5093511;28;20394;-90
2022/11/16 02:20:57;;;;;;;7.68;3.03;;;12.30;99.90;;;;;;5110233;28;20507;-90
2022/11/16 02:23:37;;;;;;;8.35;3.65;;;12.30;99.90;;;;;;5093348;28;20408;-90
2022/11/16 02:26:31;;;;;;;8.00;3.33;;;12.30;99.90;;;;;;5110605;28;20395;-90
2022/11/16 02:29:19;;;;;;;8.38;3.25;;;12.30;99.90;;;;;;5110240;28;20404;-90
2022/11/16 02:32:04;;;;;;;7.82;3.28;;;12.30;99.90;;;;;;5110287;28;20035;-90
2022/11/16 02:34:36;;;;;;;8.85;3.42;;;12.30;99.90;;;;;;5110139;28;20072;-90
2022/11/16 02:37:05;;;;;;;7.85;3.83;;;12.30;99.90;;;;;;5096460;28;20092;-90
2022/11/16 02:39:33;;;;;;;8.00;3.85;;;12.30;99.90;;;;;;5114087;28;20576;-91
2022/11/16 02:42:01;;;;;;;8.80;3.70;;;12.30;99.90;;;;;;5114035;28;20540;-90
2022/11/16 02:44:34;;;;;;;8.15;3.70;;;12.30;99.90;;;;;;5096977;28;20035;-91
2022/11/16 02:47:04;;;;;;;7.80;5.07;;;12.30;99.90;;;;;;5113888;28;20048;-91
2022/11/16 02:49:36;;;;;;;7.75;3.22;;;12.30;99.90;;;;;;5097421;28;20395;-91
2022/11/16 02:52:03;;;;;;;8.13;3.42;;;12.30;99.90;;;;;;5096758;28;20065;-91
2022/11/16 02:54:29;;;;;;;6.93;3.35;;;12.30;99.90;;;;;;5113844;28;20079;-90
2022/11/16 02:57:03;;;;;;;8.77;3.72;;;12.30;99.90;;;;;;5097109;28;20535;-91
2022/11/16 02:59:37;;;;;;;8.63;3.90;;;12.30;99.90;;;;;;5113756;28;20511;-91
2022/11/16 03:02:25;;;;;;;8.90;3.70;;;12.20;99.90;;;;;;5096670;28;20118;-91
2022/11/16 03:04:58;;;;;;;8.93;5.57;;;12.20;99.90;;;;;;5113857;28;20625;-91
2022/11/16 03:07:29;;;;;;;10.38;4.10;;;12.30;99.90;;;;;;5113627;28;20039;-90
2022/11/16 03:09:56;;;;;;;11.15;4.05;;;12.30;99.90;;;;;;5096790;28;20046;-90
2022/11/16 03:12:26;;;;;;;9.68;3.95;;;12.20;99.90;;;;;;5113511;28;20122;-90
2022/11/16 03:15:01;;;;;;;8.07;3.63;;;12.20;99.90;;;;;;5113315;28;20557;-90
2022/11/16 03:17:38;;;;;;;7.95;3.75;;;12.20;99.90;;;;;;5096371;28;20088;-90
2022/11/16 03:20:10;;;;;;;10.75;4.28;;;12.20;99.90;;;;;;5113541;28;20071;-90
2022/11/16 03:22:41;;;;;;;8.23;3.45;;;12.20;99.90;;;;;;5113144;28;20108;-90
2022/11/16 03:25:08;;;;;;;10.95;4.45;;;12.20;99.90;;;;;;5113258;28;20519;-90
2022/11/16 03:27:45;;;;;;;7.65;3.85;;;12.20;99.90;;;;;;5112988;28;20036;-90
2022/11/16 03:30:20;;;;;;;8.63;4.03;;;12.20;99.90;;;;;;5113145;28;20031;-90
2022/11/16 03:33:18;;;;;;;9.02;4.47;;;12.10;99.90;;;;;;5095920;28;20085;-90
2022/11/16 03:36:02;;;;;;;9.82;4.78;;;12.10;99.90;;;;;;5113090;28;20063;-90
2022/11/16 03:38:28;;;;;;;8.55;4.20;;;12.10;99.90;;;;;;5113221;28;20059;-90
2022/11/16 03:41:00;;;;;;;10.43;4.82;;;12.10;99.90;;;;;;5113312;28;20040;-90
2022/11/16 03:43:26;;;;;;;10.95;4.65;;;12.10;99.90;;;;;;5112996;28;20056;-90
2022/11/16 03:45:53;;;;;;;10.10;4.53;;;12.10;99.90;;;;;;5112878;28;20051;-90
2022/11/16 03:48:18;;;;;;;10.38;5.32;;;12.00;99.90;;;;;;5112360;28;20040;-90
2022/11/16 03:50:44;;;;;;;12.63;9.00;;;12.00;99.90;;;;;;5095887;28;20042;-90
2022/11/16 03:53:10;;;;;;;9.38;4.60;;;12.10;99.90;;;;;;5112462;28;20096;-90
2022/11/16 03:55:36;;;;;;;10.38;4.88;;;12.10;99.90;;;;;;5112587;28;20036;-90
2022/11/16 03:58:01;;;;;;;10.80;5.30;;;12.00;99.90;;;;;;5113024;28;20092;-90
2022/11/16 04:00:27;;;;;;;11.95;5.05;;;12.00;99.90;;;;;;5112287;28;20527;-90
2022/11/16 04:02:52;;;;;;;9.98;4.82;;;12.00;99.90;;;;;;5112245;28;20122;-90
2022/11/16 04:24:48;;;;;;;9.43;5.28;;;11.90;99.90;;;;;;5112092;28;20044;-90
2022/11/16 04:30:01;;;;;;;11.10;5.53;;;11.90;99.90;;;;;;5111863;28;20043;-90
2022/11/16 04:37:57;;;;;;;9.55;5.40;;;11.90;99.90;;;;;;5090425;28;20048;-90
2022/11/16 04:40:26;;;;;;;11.13;4.88;;;11.90;99.90;;;;;;5074572;28;20194;-90
2022/11/16 04:42:53;;;;;;;12.38;9.90;;;11.90;99.90;;;;;;5074366;28;20063;-90
2022/11/16 04:48:05;;;;;;;10.65;5.57;;;12.00;99.90;;;;;;5091297;28;20079;-90
2022/11/16 04:50:31;;;;;;;11.05;5.53;;;11.90;99.90;;;;;;5091142;28;20044;-90
2022/11/16 04:52:56;;;;;;;11.15;5.70;;;12.00;99.90;;;;;;5073995;28;20040;-90
2022/11/16 04:55:22;;;;;;;10.63;6.03;;;11.90;99.90;;;;;;5091182;28;20262;-89
2022/11/16 04:57:48;;;;;;;13.48;10.65;;;11.90;99.90;;;;;;5074274;28;20040;-90
2022/11/16 05:00:14;;;;;;;11.05;5.65;;;12.00;99.90;;;;;;5090851;28;20188;-90
2022/11/16 05:02:40;;;;;;;10.63;6.10;;;12.00;99.90;;;;;;5074162;28;20040;-89
2022/11/16 05:05:06;;;;;;;11.40;5.53;;;11.90;99.90;;;;;;5091008;28;20508;-90
2022/11/16 05:07:31;;;;;;;11.73;9.70;;;11.90;99.90;;;;;;5090944;28;20119;-90
2022/11/16 05:09:57;;;;;;;14.55;11.02;;;12.00;99.90;;;;;;5091048;28;20124;-89
2022/11/16 05:12:26;;;;;;;12.25;6.43;;;12.00;99.90;;;;;;5090319;28;20036;-90
2022/11/16 05:14:53;;;;;;;10.85;5.82;;;12.00;99.90;;;;;;5091058;28;20035;-90
2022/11/16 05:17:19;;;;;;;10.52;5.45;;;11.90;99.90;;;;;;5097561;28;20055;-89
2022/11/16 05:22:29;;;;;;;11.77;9.88;;;11.90;99.90;;;;;;5089757;28;20048;-89
2022/11/16 05:24:55;;;;;;;12.77;11.43;;;12.00;99.90;;;;;;5089714;28;20044;-89
2022/11/16 05:27:21;;;;;;;10.05;5.88;;;12.10;99.90;;;;;;5090073;28;20044;-89
2022/11/16 05:29:51;;;;;;;10.80;5.75;;;12.00;99.90;;;;;;5073001;28;20054;-90
2022/11/16 05:32:18;;;;;;;11.38;6.75;;;12.00;99.90;;;;;;5088822;28;20485;-89
2022/11/16 05:34:44;;;;;;;10.18;5.93;;;12.00;99.90;;;;;;5089731;28;20048;-89
2022/11/16 05:37:11;;;;;;;11.15;6.32;;;11.90;99.90;;;;;;5089577;28;20046;-89
2022/11/16 05:39:36;;;;;;;11.55;6.75;;;11.90;99.90;;;;;;5094598;28;20054;-89
2022/11/16 05:42:02;;;;;;;12.00;6.43;;;11.90;99.90;;;;;;5109878;28;20486;-90
2022/11/16 05:44:28;;;;;;;11.43;7.63;;;11.90;99.90;;;;;;5109729;28;20043;-89
2022/11/16 05:46:54;;;;;;;11.07;6.72;;;11.90;99.90;;;;;;5109814;28;20130;-89
2022/11/16 05:49:21;;;;;;;11.60;6.82;;;11.90;99.90;;;;;;5092935;28;20485;-89
2022/11/16 05:51:47;;;;;;;12.38;6.68;;;11.90;99.90;;;;;;5110151;28;20027;-89
2022/11/16 05:54:18;;;;;;;12.00;6.72;;;11.90;99.90;;;;;;5092841;28;20036;-89
2022/11/16 05:56:45;;;;;;;10.25;6.32;;;11.80;99.90;;;;;;5109876;28;20409;-89
2022/11/16 05:59:16;;;;;;;11.23;7.28;;;11.80;99.90;;;;;;5109863;28;20043;-89
2022/11/16 06:01:42;;;;;;;11.45;7.22;;;11.80;99.90;;;;;;5092948;28;20122;-89
2022/11/16 06:04:08;;;;;;;11.57;6.70;;;11.80;99.90;;;;;;5092442;28;20405;-90
2022/11/16 06:06:34;;;;;;;12.65;7.07;;;11.80;99.90;;;;;;5092710;28;20044;-90
2022/11/16 06:08:59;;;;;;;11.00;6.75;;;11.80;99.90;;;;;;5110317;28;20492;-90
2022/11/16 06:11:25;;;;;;;12.15;7.03;;;11.80;99.90;;;;;;5112093;28;20130;-89
2022/11/16 06:13:51;;;;;;;13.00;6.35;;;11.80;99.90;;;;;;5113996;28;20035;-89
2022/11/16 06:16:16;;;;;;;12.45;7.07;;;11.80;99.90;;;;;;5091839;28;20043;-90
2022/11/16 06:18:44;;;;;;;12.55;7.28;;;11.80;99.90;;;;;;5093771;28;20456;-90
2022/11/16 06:21:11;;;;;;;11.80;7.43;;;11.80;99.90;;;;;;5076969;28;20420;-90
2022/11/16 06:23:36;;;;;;;12.30;7.35;;;11.80;99.90;;;;;;5093104;28;20043;-89
2022/11/16 06:26:03;;;;;;;13.25;7.53;;;11.80;99.90;;;;;;5093847;28;20051;-89
2022/11/16 06:28:29;;;;;;;11.05;6.82;;;11.80;99.90;;;;;;5093140;28;20040;-90
2022/11/16 06:30:55;;;;;;;13.68;8.10;;;11.80;99.90;;;;;;5093397;28;20036;-89
2022/11/16 06:33:21;;;;;;;15.32;13.82;;;11.80;99.90;;;;;;5093445;28;20161;-89
2022/11/16 06:35:47;;;;;;;13.80;7.88;;;11.90;99.90;;;;;;5076885;28;20040;-89
2022/11/16 06:38:17;;;;;;;12.55;7.90;;;11.90;99.90;;;;;;5093344;28;20046;-89
2022/11/16 06:40:54;;;;;;;14.10;8.68;;;11.80;99.90;;;;;;5110477;28;20117;-88
2022/11/16 06:43:21;;;;;;;12.95;8.45;;;11.80;99.90;;;;;;5074682;28;20097;-89
2022/11/16 06:45:54;;;;;;;13.85;7.82;;;11.70;99.90;;;;;;5092705;28;20051;-89
2022/11/16 06:48:21;;;;;;;11.27;7.35;;;11.80;99.90;;;;;;5076204;28;20493;-89
2022/11/16 06:50:48;;;;;;;12.05;7.68;;;11.70;99.90;;;;;;5076154;28;20438;-88
2022/11/16 06:53:14;;;;;;;11.70;7.35;;;11.70;99.90;;;;;;5076062;28;20036;-88
2022/11/16 06:55:39;;;;;;;13.63;7.80;;;11.70;99.90;;;;;;5092684;28;20032;-88
2022/11/16 06:58:05;;;;;;;14.13;7.90;;;11.80;99.90;;;;;;5076132;28;20098;-89
2022/11/16 07:00:31;;;;;;;12.25;7.63;;;11.80;99.90;;;;;;5092510;28;20047;-88
2022/11/16 07:02:56;;;;;;;12.30;7.68;;;11.80;99.90;;;;;;5092569;28;20556;-88
2022/11/16 07:05:22;;;;;;;12.70;7.18;;;11.80;99.90;;;;;;5092581;28;20084;-89
2022/11/16 07:07:51;;;;;;;14.15;7.38;;;11.80;99.90;;;;;;5092401;28;20135;-89
2022/11/16 07:10:17;;;;;;;11.07;6.65;;;11.80;99.90;;;;;;5097110;28;20385;-88
2022/11/16 07:12:42;;;;;;;12.73;7.38;;;11.80;99.90;;;;;;5112645;28;20519;-88
2022/11/16 07:15:08;;;;;;;13.10;7.25;;;11.80;99.90;;;;;;5113021;28;20040;-89
2022/11/16 07:17:34;;;;;;;11.07;6.43;;;11.80;99.90;;;;;;5095924;28;20502;-89
2022/11/16 07:19:59;;;;;;;12.85;7.88;;;11.80;99.90;;;;;;5112855;28;20039;-89
2022/11/16 07:22:25;;;;;;;11.70;6.85;;;11.80;99.90;;;;;;5112080;28;20404;-89
2022/11/16 07:24:50;;;;;;;14.30;12.82;;;11.90;99.90;;;;;;5112336;28;20505;-89
2022/11/16 07:27:16;;;;;;;11.80;7.32;;;11.90;99.90;;;;;;5112418;28;20043;-89
2022/11/16 07:29:41;;;;;;;12.00;7.18;;;12.00;99.90;;;;;;5112899;28;20080;-88
2022/11/16 07:32:07;;;;;;;12.10;7.85;;;11.90;99.90;;;;;;5112391;28;20047;-88
2022/11/16 07:34:32;;;;;;;11.57;7.28;;;11.90;99.90;;;;;;5112913;28;20036;-89
2022/11/16 07:36:58;;;;;;;12.63;7.45;;;11.90;99.90;;;;;;5112774;28;20492;-89
2022/11/16 07:39:24;;;;;;;12.48;8.52;;;11.90;99.90;;;;;;5112525;28;20043;-89
2022/11/16 07:41:51;;;;;;;12.27;7.80;;;11.90;99.90;;;;;;5095516;28;20518;-89
2022/11/16 07:44:17;;;;;;;11.50;7.28;;;11.90;99.90;;;;;;5095028;28;20039;-89
2022/11/16 07:46:43;;;;;;;12.85;8.10;;;11.90;99.90;;;;;;5112164;28;20042;-89
2022/11/16 07:49:16;;;;;;;15.25;13.77;;;11.90;99.90;;;;;;5095373;28;20031;-89
2022/11/16 07:51:42;;;;;;;11.05;7.13;;;12.00;99.90;;;;;;5112243;28;20119;-89
2022/11/16 07:54:11;;;;;;;11.00;6.55;;;12.00;99.90;;;;;;5111477;28;20118;-89
2022/11/16 07:56:37;;;;;;;12.77;7.93;;;12.00;99.90;;;;;;5112343;28;20441;-89
2022/11/16 07:59:02;;;;;;;11.55;7.05;;;11.90;99.90;;;;;;5112450;28;20074;-89
2022/11/16 08:01:28;;;;;;;10.90;7.10;;;11.90;99.90;;;;;;5093235;28;20081;-89
2022/11/16 08:03:53;;;;;;;11.95;7.43;;;11.90;99.90;;;;;;5090232;28;20119;-89
2022/11/16 08:06:23;;;;;;;10.75;6.85;;;11.90;99.90;;;;;;5091188;28;20036;-89
2022/11/16 08:08:49;;;;;;;11.23;6.90;;;11.90;99.90;;;;;;5091301;28;20562;-89
2022/11/16 08:11:14;;;;;;;10.32;7.13;;;11.90;99.90;;;;;;5091524;28;20032;-89
2022/11/16 08:13:41;;;;;;;10.63;7.13;;;11.90;99.90;;;;;;5074329;28;20099;-89
2022/11/16 08:16:15;;;;;;;11.70;7.22;;;11.90;99.90;;;;;;5091513;28;20044;-89
2022/11/16 08:18:41;;;;;;;13.00;11.70;;;11.90;99.90;;;;;;5091643;28;20100;-90
2022/11/16 08:21:09;;;;;;;11.23;7.53;;;12.00;99.90;;;;;;5074082;28;20169;-89
2022/11/16 08:23:35;;;;;;;12.25;7.38;;;12.00;99.90;;;;;;5090669;28;20493;-90
2022/11/16 08:26:03;;;;;;;11.38;7.63;;;12.00;99.90;;;;;;5074152;28;20047;-90
2022/11/16 08:28:30;;;;;;;11.45;7.10;;;12.00;99.90;;;;;;5089916;28;20118;-90
2022/11/16 08:30:57;;;;;;;14.43;13.02;;;12.00;99.90;;;;;;5088377;28;20077;-90
2022/11/16 08:33:23;;;;;;;12.07;7.88;;;12.10;99.90;;;;;;5087718;28;20057;-90
2022/11/16 08:35:49;;;;;;;12.68;7.88;;;12.10;99.90;;;;;;5072525;28;20515;-90
2022/11/16 08:38:17;;;;;;;11.80;7.78;;;12.00;99.90;;;;;;5090072;28;20044;-89
2022/11/16 08:40:43;;;;;;;11.70;7.57;;;12.00;99.90;;;;;;5089994;28;20087;-89
2022/11/16 08:43:09;;;;;;;11.45;7.43;;;12.00;99.90;;;;;;5091237;28;20073;-89
2022/11/16 08:45:36;;;;;;;14.50;12.88;;;12.10;99.90;;;;;;5090114;28;20036;-89
2022/11/16 08:48:03;;;;;;;11.35;6.72;;;12.10;99.90;;;;;;5090800;28;20040;-90
2022/11/16 08:50:28;;;;;;;11.85;7.57;;;12.20;99.90;;;;;;5073461;28;20088;-90
2022/11/16 08:52:56;;;;;;;11.10;7.07;;;12.20;99.90;;;;;;5090504;28;20043;-89
2022/11/16 08:55:22;;;;;;;12.88;7.53;;;12.20;99.90;;;;;;5090775;28;20036;-90
2022/11/16 08:57:48;;;;;;;10.45;7.20;;;12.20;99.90;;;;;;5073883;28;20039;-90
2022/11/16 09:00:14;;;;;;;15.50;13.90;;;12.20;99.90;;;;;;5090668;28;20051;-90
2022/11/16 09:02:39;;;;;;;12.70;8.45;;;12.30;99.90;;;;;;5090194;28;20047;-90
2022/11/16 09:05:06;;;;;;;11.77;8.23;;;12.30;99.90;;;;;;5090306;28;20040;-90
2022/11/16 09:07:32;;;;;;;17.25;15.55;;;12.30;99.90;;;;;;5090576;28;20062;-89
2022/11/16 09:09:58;;;;;;;12.57;7.82;;;12.40;99.90;;;;;;5090121;28;20612;-90
2022/11/16 09:12:23;;;;;;;12.65;8.25;;;12.50;99.90;;;;;;5090074;28;20054;-90
2022/11/16 09:14:49;;;;;;;11.52;7.88;;;12.50;99.90;;;;;;5090442;28;20036;-90
2022/11/16 09:17:15;;;;;;;16.30;14.70;;;12.40;99.90;;;;;;5090409;28;20081;-89
2022/11/16 09:19:41;;;;;;;17.02;15.43;;;12.50;99.90;;;;;;5089591;28;20514;-90
2022/11/16 09:22:06;;;;;;;12.35;8.07;;;12.60;99.90;;;;;;5089854;28;20039;-90
2022/11/16 09:24:33;;;;;;;14.20;7.80;;;12.60;99.90;;;;;;5073646;28;20043;-90
2022/11/16 09:27:00;;;;;;;13.30;7.75;;;12.50;99.90;;;;;;5073138;28;20044;-90
2022/11/16 09:29:29;;;;;;;13.02;7.85;;;12.50;99.90;;;;;;5090226;28;20043;-90
2022/11/16 09:31:55;;;;;;;13.00;8.20;;;12.50;99.90;;;;;;5072931;28;20522;-90
2022/11/16 09:34:21;;;;;;;14.18;8.57;;;12.60;99.90;;;;;;5089550;28;20123;-89
2022/11/16 09:36:46;;;;;;;14.18;9.23;;;12.60;99.90;;;;;;5072880;28;20035;-90
2022/11/16 09:39:12;;;;;;;15.80;14.20;;;12.70;99.90;;;;;;5073341;28;20037;-89
2022/11/16 09:41:52;;;;;;;14.27;12.77;;;12.80;99.90;;;;;;5072841;28;20489;-90
2022/11/16 09:44:36;;;;;;;14.90;12.68;;;12.90;99.90;;;;;;5072258;28;20028;-90
2022/11/16 09:47:07;;;;;;;11.32;6.93;;;13.00;99.90;;;;;;5073097;28;20042;-90
2022/11/16 09:49:41;;;;;;;14.88;6.85;;;12.80;99.90;;;;;;5073098;28;20047;-90
2022/11/16 09:52:29;;;;;;;12.52;6.72;;;12.80;99.90;;;;;;5072530;28;20040;-90
2022/11/16 09:54:56;;;;;;;12.45;6.85;;;12.70;99.90;;;;;;5089764;28;20044;-90
2022/11/16 09:57:31;;;;;;;13.20;7.07;;;12.70;99.90;;;;;;5072941;28;20043;-90
2022/11/16 10:00:03;;;;;;;11.07;6.07;;;12.60;99.90;;;;;;5088937;28;20071;-90
2022/11/16 10:02:39;;;;;;;11.90;6.43;;;12.60;99.90;;;;;;5089334;28;20043;-90
2022/11/16 10:05:20;;;;;;;15.93;7.15;;;12.60;99.90;;;;;;5072965;28;20047;-90
2022/11/16 10:07:52;;;;;;;14.13;11.05;;;12.50;99.90;;;;;;5072629;28;20049;-90
2022/11/16 10:11:00;;;;;;;13.27;5.93;;;12.60;99.90;;;;;;5089646;28;20066;-90
2022/11/16 10:13:46;;;;;;;10.43;5.32;;;12.60;99.90;;;;;;5078351;28;20063;-90
2022/11/16 10:16:24;;;;;;;11.35;5.47;;;12.50;99.90;;;;;;5089701;28;20113;-90
2022/11/16 10:19:10;;;;;;;10.35;4.75;;;12.60;99.90;;;;;;5072624;28;20036;-90
2022/11/16 10:21:41;;;;;;;10.43;5.10;;;12.60;99.90;;;;;;5072945;28;20533;-90
2022/11/16 10:24:15;;;;;;;15.40;5.82;;;12.60;99.90;;;;;;5088633;28;20418;-90
2022/11/16 10:26:44;;;;;;;11.48;6.38;;;12.60;99.90;;;;;;5089681;28;20040;-90
2022/11/16 10:29:37;;;;;;;15.45;8.48;;;12.70;99.90;;;;;;5072696;28;20047;-90
2022/11/16 10:32:32;;;;;;;12.43;5.03;;;12.80;99.90;;;;;;5072600;28;20047;-90
2022/11/16 10:35:10;;;;;;;13.45;4.63;;;12.80;99.90;;;;;;5080570;28;20393;-90
2022/11/16 10:37:58;;;;;;;10.10;3.70;;;13.00;99.90;;;;;;5091805;28;20065;-91
2022/11/16 10:40:28;;;;;;;8.82;3.30;;;13.00;99.90;;;;;;5108637;28;20043;-91
2022/11/16 10:43:09;;;;;;;8.15;2.95;;;13.00;99.90;;;;;;5084675;28;20043;-91
2022/11/16 10:45:44;;;;;;;9.07;2.75;;;12.90;99.90;;;;;;5108488;28;20049;-91
2022/11/16 10:48:25;;;;;;;7.93;3.22;;;12.80;99.90;;;;;;5091723;28;20039;-91
2022/11/16 10:50:52;;;;;;;10.65;3.42;;;12.70;99.90;;;;;;5108450;28;20042;-90
2022/11/16 10:53:28;;;;;;;10.80;5.30;;;12.60;99.90;;;;;;5108452;28;20043;-90
2022/11/16 10:56:18;;;;;;;13.07;3.30;;;12.70;99.90;;;;;;5108225;28;20042;-90
2022/11/16 10:58:51;;;;;;;10.13;2.60;;;12.70;99.90;;;;;;5095842;28;20057;-90
2022/11/16 11:01:43;;;;;;;11.75;3.53;;;12.70;99.90;;;;;;5095707;28;20527;-90
2022/11/16 11:04:11;;;;;;;12.27;3.80;;;12.70;99.90;;;;;;5101833;28;20400;-90
2022/11/16 11:06:37;;;;;;;11.77;2.92;;;12.80;99.90;;;;;;5095263;28;20042;-90
2022/11/16 11:09:26;;;;;;;7.10;2.50;;;12.80;99.90;;;;;;5096611;28;20062;-90
2022/11/16 11:15:02;;;;;;;;;;;13.10;99.90;;;;;;5114052;28;20039;-90
2022/11/16 11:17:30;;;;;;;10.68;2.58;;;13.10;99.90;;;;;;5095420;28;19981;-90
2022/11/16 11:20:03;;;;;;;10.73;2.78;;;13.20;99.90;;;;;;5113358;28;20156;-91
2022/11/16 11:22:30;;;;;;;11.27;3.17;;;13.30;99.90;;;;;;5095143;28;20047;-89
2022/11/16 11:24:56;;;;;;;14.98;4.30;;;13.40;99.90;;;;;;5113508;28;20089;-91
2022/11/16 11:27:26;;;;;;;11.48;3.80;;;13.60;99.90;;;;;;5110884;28;20036;-92
2022/11/16 11:29:54;;;;;;;11.35;2.95;;;13.80;99.90;;;;;;5105773;28;20485;-90
2022/11/16 11:32:21;;;;;;;9.75;2.53;;;13.90;99.90;;;;;;5112321;28;20122;-90
2022/11/16 11:34:54;;;;;;;13.27;2.40;;;14.10;99.90;;;;;;5095579;28;20039;-90
2022/11/16 11:37:33;;;;;;;11.02;3.85;;;14.10;99.90;;;;;;5096222;28;20043;-91
2022/11/16 11:40:20;;;;;;;8.50;2.60;;;14.30;99.90;;;;;;5094813;28;20045;-90
2022/11/16 11:43:00;;;;;;;8.95;2.35;;;14.30;99.90;;;;;;5113122;28;20437;-90
2022/11/16 11:45:40;;;;;;;8.25;2.40;;;14.40;99.90;;;;;;5112578;28;20046;-91
2022/11/16 11:48:18;;;;;;;11.48;3.50;;;14.50;99.90;;;;;;5112277;28;20093;-90
2022/11/16 11:50:51;;;;;;;9.25;3.40;;;14.60;99.90;;;;;;5094432;28;20035;-90
2022/11/16 11:53:47;;;;;;;11.10;3.45;;;14.70;99.90;;;;;;5095599;28;20031;-91
2022/11/16 11:56:13;;;;;;;11.85;3.58;;;14.80;99.90;;;;;;5095277;28;20091;-92
2022/11/16 11:58:40;;;;;;;10.10;2.40;;;15.00;99.90;;;;;;5112204;28;20442;-90
2022/11/16 12:01:27;;;;;;;13.35;3.30;;;15.30;99.90;;;;;;5112696;28;20172;-90
2022/11/16 12:04:11;;;;;;;11.68;3.20;;;15.70;99.90;;;;;;5111255;28;20093;-90
2022/11/16 12:06:50;;;;;;;11.23;3.42;;;16.20;99.90;;;;;;5112174;28;20046;-91
2022/11/16 12:09:31;;;;;;;11.93;3.10;;;16.50;99.90;;;;;;5111478;28;20040;-91
2022/11/16 12:12:22;;;;;;;11.05;2.92;;;16.70;99.00;;;;;;5079509;28;20040;-91
2022/11/16 12:15:20;;;;;;;8.45;2.10;;;16.90;99.90;;;;;;5092135;28;20444;-90
2022/11/16 12:17:51;;;;;;;10.50;3.20;;;17.50;99.90;;;;;;5019925;28;20052;-91
2022/11/16 12:20:26;;;;;;;11.35;3.38;;;18.30;93.40;;;;;;5071748;28;20444;-91
2022/11/16 12:23:08;;;;;;;13.32;3.28;;;18.30;93.80;;;;;;5100084;28;20058;-91
2022/11/16 12:25:57;;;;;;;8.45;2.15;;;18.00;91.50;;;;;;5076020;28;20401;-91
2022/11/16 12:28:46;;;;;;;10.40;3.08;;;17.60;95.10;;;;;;5041336;28;20056;-91
2022/11/16 12:31:21;;;;;;;13.10;3.60;;;17.20;93.80;;;;;;5094031;28;20143;-91
2022/11/16 12:34:04;;;;;;;13.25;3.30;;;17.60;99.30;;;;;;5111686;28;20044;-91
2022/11/16 12:37:00;;;;;;;13.10;3.60;;;18.90;94.80;;;;;;5111696;28;20043;-91
2022/11/16 12:39:54;;;;;;;11.68;3.15;;;20.10;82.20;;;;;;5112197;28;20035;-92
2022/11/16 12:42:55;;;;;;;11.73;3.50;;;20.90;81.20;;;;;;5093190;28;20081;-91
2022/11/16 12:45:45;;;;;;;10.85;3.70;;;22.10;76.80;;;;;;5095028;28;20040;-92
2022/11/16 12:48:23;;;;;;;13.65;3.55;;;23.50;69.40;;;;;;5110256;27;20089;-94
2022/11/16 12:53:05;;;;;;;10.55;2.70;;;24.70;63.60;;;;;;5130476;27;20323;-91
2022/11/16 12:55:42;;;;;;;13.02;3.72;;;24.70;62.60;;;;;;5135988;27;20044;-90
2022/11/16 12:58:32;;;;;;;11.32;3.00;;;25.20;61.40;;;;;;5129146;27;20043;-91
2022/11/16 13:01:19;;;;;;;11.48;2.92;;;26.00;60.10;;;;;;5096408;28;20508;-91
2022/11/16 13:04:17;;;;;;;10.40;2.88;;;26.70;57.90;;;;;;5090240;28;20043;-91
2022/11/16 13:07:03;;;;;;;9.00;2.38;;;27.40;56.30;;;;;;5114764;28;20048;-91
2022/11/16 13:09:34;;;;;;;10.10;2.50;;;27.90;56.20;;;;;;5110203;28;20039;-91
2022/11/16 13:12:04;;;;;;;11.70;3.10;;;28.30;54.80;;;;;;5124762;27;20513;-91
2022/11/16 13:14:47;;;;;;;10.82;2.67;;;28.30;52.50;;;;;;5110171;28;20047;-91
2022/11/16 13:17:26;;;;;;;10.73;2.40;;;28.60;52.80;;;;;;5109311;28;20119;-91
2022/11/16 13:20:34;;;;;;;9.95;2.83;;;28.70;49.90;;;;;;5127639;28;20546;-92
2022/11/16 13:23:17;;;;;;;11.20;2.72;;;29.00;49.30;;;;;;5086841;27;20095;-92
2022/11/16 13:25:47;;;;;;;;;;;29.30;50.00;;;;;;5128436;27;20378;-92
2022/11/16 13:28:31;;;;;;;10.75;2.60;;;29.20;49.80;;;;;;5126738;27;19916;-91
2022/11/16 13:31:18;;;;;;;12.15;2.67;;;29.00;48.00;;;;;;5125299;27;20049;-91
2022/11/16 13:33:51;;;;;;;10.57;2.33;;;28.70;48.50;;;;;;5128146;27;20071;-91
2022/11/16 13:36:39;;;;;;;12.00;2.67;;;29.10;47.20;;;;;;5125923;27;20048;-91
2022/11/16 13:39:10;;;;;;;10.50;2.60;;;28.70;46.20;;;;;;5110111;27;20044;-90
2022/11/16 13:42:06;;;;;;;9.52;2.47;;;27.80;46.30;;;;;;5109428;28;20032;-91